createdAt,value
2018-03-06T00:00:53.519Z,0.00
2018-03-06T00:01:53.417Z,0.00
2018-03-06T00:02:53.313Z,0.00
2018-03-06T00:03:53.196Z,0.00
2018-03-06T00:04:53.095Z,0.00
2018-03-06T00:05:52.991Z,0.00
2018-03-06T00:06:52.887Z,0.00
2018-03-06T00:07:52.772Z,0.00
2018-03-06T00:08:52.669Z,0.00
2018-03-06T00:09:52.566Z,0.00
2018-03-06T00:10:52.451Z,0.00
2018-03-06T00:11:52.346Z,0.00
2018-03-06T00:12:52.242Z,0.00
2018-03-06T00:13:52.139Z,0.00
2018-03-06T00:14:52.024Z,0.00
2018-03-06T00:15:51.921Z,0.00
2018-03-06T00:16:51.821Z,0.00
2018-03-06T00:17:51.700Z,0.00
2018-03-06T00:18:51.596Z,0.00
2018-03-06T00:19:51.745Z,0.00
2018-03-06T00:20:51.379Z,0.00
2018-03-06T00:21:51.275Z,0.00
2018-03-06T00:22:51.172Z,0.00
2018-03-06T00:23:51.071Z,0.00
2018-03-06T00:24:50.951Z,0.00
2018-03-06T00:25:50.848Z,0.00
2018-03-06T00:26:50.746Z,0.00
2018-03-06T00:27:50.643Z,0.00
2018-03-06T00:28:50.528Z,0.00
2018-03-06T00:29:50.424Z,0.00
2018-03-06T00:30:50.320Z,0.00
2018-03-06T00:31:50.216Z,0.00
2018-03-06T00:32:50.102Z,0.00
2018-03-06T00:33:49.997Z,0.00
2018-03-06T00:34:49.883Z,0.00
2018-03-06T00:35:49.778Z,0.00
2018-03-06T00:36:49.675Z,0.00
2018-03-06T00:37:49.560Z,0.00
2018-03-06T00:38:49.456Z,0.00
2018-03-06T00:39:49.352Z,0.00
2018-03-06T00:40:49.249Z,0.00
2018-03-06T00:41:49.133Z,0.00
2018-03-06T00:42:49.030Z,0.00
2018-03-06T00:43:48.927Z,0.00
2018-03-06T00:44:48.814Z,0.00
2018-03-06T00:45:48.708Z,0.00
2018-03-06T00:46:48.604Z,0.00
2018-03-06T00:47:48.489Z,0.00
2018-03-06T00:48:48.386Z,0.00
2018-03-06T00:49:48.281Z,0.00
2018-03-06T00:50:48.168Z,0.00
2018-03-06T00:51:48.062Z,0.00
2018-03-06T00:52:47.959Z,0.00
2018-03-06T00:53:47.857Z,0.00
2018-03-06T00:54:47.740Z,0.00
2018-03-06T00:55:47.637Z,0.00
2018-03-06T00:56:47.536Z,0.00
2018-03-06T00:57:47.418Z,0.00
2018-03-06T00:58:47.315Z,0.00
2018-03-06T00:59:47.212Z,0.00
2018-03-06T01:00:47.107Z,0.00
2018-03-06T01:01:46.993Z,0.00
2018-03-06T01:02:46.893Z,0.00
2018-03-06T01:03:46.773Z,0.00
2018-03-06T01:04:46.919Z,0.00
2018-03-06T01:05:46.566Z,0.00
2018-03-06T01:06:46.462Z,0.00
2018-03-06T01:07:46.347Z,0.00
2018-03-06T01:08:46.243Z,0.00
2018-03-06T01:09:46.141Z,0.00
2018-03-06T01:10:46.026Z,0.00
2018-03-06T01:11:45.920Z,0.00
2018-03-06T01:12:45.819Z,0.00
2018-03-06T01:13:45.702Z,0.00
2018-03-06T01:14:45.600Z,0.00
2018-03-06T01:15:45.496Z,0.00
2018-03-06T01:16:45.379Z,0.00
2018-03-06T01:17:45.276Z,0.00
2018-03-06T01:18:45.173Z,0.00
2018-03-06T01:19:45.058Z,0.00
2018-03-06T01:20:44.954Z,0.00
2018-03-06T01:21:44.851Z,0.00
2018-03-06T01:22:44.736Z,0.00
2018-03-06T01:23:44.631Z,0.00
2018-03-06T01:24:44.778Z,0.00
2018-03-06T01:25:44.412Z,0.00
2018-03-06T01:26:44.309Z,0.00
2018-03-06T01:27:44.206Z,0.00
2018-03-06T01:28:44.089Z,0.00
2018-03-06T01:29:43.987Z,0.00
2018-03-06T01:30:43.896Z,0.00
2018-03-06T01:31:43.767Z,0.00
2018-03-06T01:32:43.665Z,0.00
2018-03-06T01:33:43.564Z,0.00
2018-03-06T01:34:43.445Z,0.00
2018-03-06T01:35:43.343Z,0.00
2018-03-06T01:36:43.239Z,0.00
2018-03-06T01:37:43.123Z,0.00
2018-03-06T01:38:43.022Z,0.00
2018-03-06T01:39:42.916Z,0.00
2018-03-06T01:40:42.800Z,0.00
2018-03-06T01:41:42.696Z,0.00
2018-03-06T01:42:42.593Z,0.00
2018-03-06T01:43:42.490Z,0.00
2018-03-06T01:44:42.375Z,0.00
2018-03-06T01:45:42.270Z,0.00
2018-03-06T01:46:42.156Z,0.00
2018-03-06T01:47:42.052Z,0.00
2018-03-06T01:48:41.949Z,0.00
2018-03-06T01:49:41.834Z,0.00
2018-03-06T01:50:41.729Z,0.00
2018-03-06T01:51:41.627Z,0.00
2018-03-06T01:52:41.511Z,0.00
2018-03-06T01:53:41.406Z,0.00
2018-03-06T01:54:41.303Z,0.00
2018-03-06T01:55:41.188Z,0.00
2018-03-06T01:56:41.085Z,0.00
2018-03-06T01:57:40.980Z,0.00
2018-03-06T01:58:40.866Z,0.00
2018-03-06T01:59:40.761Z,0.00
2018-03-06T02:00:40.659Z,0.00
2018-03-06T02:01:40.543Z,0.00
2018-03-06T02:02:40.440Z,0.00
2018-03-06T02:03:40.337Z,0.00
2018-03-06T02:04:40.220Z,0.00
2018-03-06T02:05:40.130Z,0.00
2018-03-06T02:06:40.013Z,0.00
2018-03-06T02:07:39.898Z,0.00
2018-03-06T02:08:39.795Z,0.00
2018-03-06T02:09:39.692Z,0.00
2018-03-06T02:10:39.588Z,0.00
2018-03-06T02:11:39.471Z,0.00
2018-03-06T02:12:39.357Z,0.00
2018-03-06T02:13:39.253Z,0.00
2018-03-06T02:14:39.222Z,0.00
2018-03-06T02:15:39.036Z,0.00
2018-03-06T02:16:38.931Z,0.00
2018-03-06T02:17:38.827Z,0.00
2018-03-06T02:18:38.714Z,0.00
2018-03-06T02:19:38.614Z,0.00
2018-03-06T02:20:38.505Z,0.00
2018-03-06T02:21:38.388Z,0.00
2018-03-06T02:22:38.289Z,0.00
2018-03-06T02:23:38.183Z,0.00
2018-03-06T02:24:38.067Z,0.00
2018-03-06T02:25:37.962Z,0.00
2018-03-06T02:26:37.861Z,0.00
2018-03-06T02:27:37.746Z,0.00
2018-03-06T02:28:37.640Z,0.00
2018-03-06T02:29:37.786Z,0.00
2018-03-06T02:30:37.422Z,0.00
2018-03-06T02:31:37.318Z,0.00
2018-03-06T02:32:37.215Z,0.00
2018-03-06T02:33:37.099Z,0.00
2018-03-06T02:34:36.995Z,0.00
2018-03-06T02:35:36.892Z,0.00
2018-03-06T02:36:36.777Z,0.00
2018-03-06T02:37:36.673Z,0.00
2018-03-06T02:38:36.559Z,0.00
2018-03-06T02:39:36.454Z,0.00
2018-03-06T02:40:36.351Z,0.00
2018-03-06T02:41:36.235Z,0.00
2018-03-06T02:42:36.131Z,0.00
2018-03-06T02:43:36.030Z,0.00
2018-03-06T02:44:35.912Z,0.00
2018-03-06T02:45:35.810Z,0.00
2018-03-06T02:46:35.705Z,0.00
2018-03-06T02:47:35.590Z,0.00
2018-03-06T02:48:35.488Z,0.00
2018-03-06T02:49:35.385Z,0.00
2018-03-06T02:50:35.267Z,0.00
2018-03-06T02:51:35.164Z,0.00
2018-03-06T02:52:35.050Z,0.00
2018-03-06T02:53:34.947Z,0.00
2018-03-06T02:54:34.845Z,0.00
2018-03-06T02:55:34.728Z,0.00
2018-03-06T02:56:34.625Z,0.00
2018-03-06T02:57:34.520Z,0.00
2018-03-06T02:58:34.404Z,0.00
2018-03-06T02:59:34.306Z,0.00
2018-03-06T03:00:34.198Z,0.00
2018-03-06T03:01:34.080Z,0.00
2018-03-06T03:02:33.978Z,0.00
2018-03-06T03:03:33.874Z,0.00
2018-03-06T03:04:33.759Z,0.00
2018-03-06T03:05:33.656Z,0.00
2018-03-06T03:06:33.552Z,0.00
2018-03-06T03:07:33.435Z,0.00
2018-03-06T03:08:33.334Z,0.00
2018-03-06T03:09:33.219Z,0.00
2018-03-06T03:10:33.115Z,0.00
2018-03-06T03:11:33.011Z,0.00
2018-03-06T03:12:32.894Z,0.00
2018-03-06T03:13:32.791Z,0.00
2018-03-06T03:14:32.688Z,0.00
2018-03-06T03:15:32.574Z,0.00
2018-03-06T03:16:32.469Z,0.00
2018-03-06T03:17:32.365Z,0.00
2018-03-06T03:18:32.250Z,0.00
2018-03-06T03:19:32.147Z,0.00
2018-03-06T03:20:32.044Z,0.00
2018-03-06T03:21:31.928Z,0.00
2018-03-06T03:22:31.825Z,0.00
2018-03-06T03:23:31.710Z,0.00
2018-03-06T03:24:31.908Z,0.00
2018-03-06T03:25:31.501Z,0.00
2018-03-06T03:26:31.386Z,0.00
2018-03-06T03:27:31.283Z,0.00
2018-03-06T03:28:31.181Z,0.00
2018-03-06T03:29:31.063Z,0.00
2018-03-06T03:30:30.960Z,0.00
2018-03-06T03:31:30.870Z,0.00
2018-03-06T03:32:30.741Z,0.00
2018-03-06T03:33:30.639Z,0.00
2018-03-06T03:34:30.524Z,0.00
2018-03-06T03:35:30.419Z,0.00
2018-03-06T03:36:30.315Z,0.00
2018-03-06T03:37:30.199Z,0.00
2018-03-06T03:38:30.096Z,0.00
2018-03-06T03:39:29.998Z,0.00
2018-03-06T03:40:29.876Z,0.00
2018-03-06T03:41:29.775Z,0.00
2018-03-06T03:42:29.671Z,0.00
2018-03-06T03:43:29.556Z,0.00
2018-03-06T03:44:29.451Z,0.00
2018-03-06T03:45:29.336Z,0.00
2018-03-06T03:46:29.231Z,0.00
2018-03-06T03:47:29.129Z,0.00
2018-03-06T03:48:29.014Z,0.00
2018-03-06T03:49:28.909Z,0.00
2018-03-06T03:50:28.806Z,0.00
2018-03-06T03:51:28.690Z,0.00
2018-03-06T03:52:28.587Z,0.00
2018-03-06T03:53:28.473Z,0.00
2018-03-06T03:54:28.370Z,0.00
2018-03-06T03:55:28.264Z,0.00
2018-03-06T03:56:28.151Z,0.00
2018-03-06T03:57:28.058Z,0.00
2018-03-06T03:58:27.942Z,0.00
2018-03-06T03:59:27.832Z,0.00
2018-03-06T04:00:27.723Z,0.00
2018-03-06T04:01:27.618Z,0.00
2018-03-06T04:02:27.504Z,0.00
2018-03-06T04:03:27.402Z,0.00
2018-03-06T04:04:27.288Z,0.00
2018-03-06T04:05:27.188Z,0.00
2018-03-06T04:06:27.078Z,0.00
2018-03-06T04:07:26.962Z,0.00
2018-03-06T04:08:26.862Z,0.00
2018-03-06T04:09:26.756Z,0.00
2018-03-06T04:10:26.640Z,0.00
2018-03-06T04:11:26.547Z,0.00
2018-03-06T04:12:26.421Z,0.00
2018-03-06T04:13:26.317Z,0.00
2018-03-06T04:14:26.213Z,0.00
2018-03-06T04:15:26.098Z,0.00
2018-03-06T04:16:25.997Z,0.00
2018-03-06T04:17:25.892Z,0.00
2018-03-06T04:18:25.777Z,0.00
2018-03-06T04:19:25.672Z,0.00
2018-03-06T04:20:25.557Z,0.00
2018-03-06T04:21:25.455Z,0.00
2018-03-06T04:22:25.350Z,0.00
2018-03-06T04:23:25.233Z,0.00
2018-03-06T04:24:25.130Z,0.00
2018-03-06T04:25:25.027Z,0.00
2018-03-06T04:26:24.912Z,0.00
2018-03-06T04:27:24.809Z,0.00
2018-03-06T04:28:24.693Z,0.00
2018-03-06T04:29:24.905Z,0.00
2018-03-06T04:30:24.488Z,0.00
2018-03-06T04:31:24.369Z,0.00
2018-03-06T04:32:24.268Z,0.00
2018-03-06T04:33:24.163Z,0.00
2018-03-06T04:34:24.048Z,0.00
2018-03-06T04:35:23.945Z,0.00
2018-03-06T04:36:23.828Z,0.00
2018-03-06T04:37:23.726Z,0.00
2018-03-06T04:38:23.622Z,0.00
2018-03-06T04:39:23.506Z,0.00
2018-03-06T04:40:23.403Z,0.00
2018-03-06T04:41:23.299Z,0.00
2018-03-06T04:42:23.184Z,0.00
2018-03-06T04:43:23.081Z,0.00
2018-03-06T04:44:22.978Z,0.00
2018-03-06T04:45:22.861Z,0.00
2018-03-06T04:46:22.758Z,0.00
2018-03-06T04:47:22.642Z,0.00
2018-03-06T04:48:22.539Z,0.00
2018-03-06T04:49:22.437Z,0.00
2018-03-06T04:50:22.319Z,0.00
2018-03-06T04:51:22.215Z,0.00
2018-03-06T04:52:22.100Z,0.00
2018-03-06T04:53:22.044Z,0.00
2018-03-06T04:54:21.894Z,0.00
2018-03-06T04:55:21.784Z,0.00
2018-03-06T04:56:21.678Z,0.00
2018-03-06T04:57:21.571Z,0.00
2018-03-06T04:58:21.456Z,0.00
2018-03-06T04:59:21.353Z,0.00
2018-03-06T05:00:21.236Z,0.00
2018-03-06T05:01:21.134Z,0.00
2018-03-06T05:02:21.051Z,0.00
2018-03-06T05:03:20.914Z,0.00
2018-03-06T05:04:20.810Z,0.00
2018-03-06T05:05:20.697Z,0.00
2018-03-06T05:06:20.591Z,0.00
2018-03-06T05:07:20.488Z,0.00
2018-03-06T05:08:20.376Z,0.00
2018-03-06T05:09:20.269Z,0.00
2018-03-06T05:10:20.168Z,0.00
2018-03-06T05:11:20.051Z,0.00
2018-03-06T05:12:19.947Z,0.00
2018-03-06T05:13:19.843Z,4.00
2018-03-06T05:14:19.729Z,4.00
2018-03-06T05:15:19.627Z,0.00
2018-03-06T05:16:19.508Z,4.00
2018-03-06T05:17:19.405Z,4.00
2018-03-06T05:18:19.301Z,4.00
2018-03-06T05:19:19.188Z,8.00
2018-03-06T05:20:19.083Z,8.00
2018-03-06T05:21:18.967Z,8.00
2018-03-06T05:22:18.864Z,12.00
2018-03-06T05:23:18.759Z,16.00
2018-03-06T05:24:18.647Z,16.00
2018-03-06T05:25:18.542Z,20.00
2018-03-06T05:26:18.439Z,24.00
2018-03-06T05:27:18.321Z,24.00
2018-03-06T05:28:18.218Z,28.00
2018-03-06T05:29:18.107Z,36.00
2018-03-06T05:30:18.000Z,44.00
2018-03-06T05:31:17.896Z,44.00
2018-03-06T05:32:17.781Z,52.00
2018-03-06T05:33:17.676Z,60.00
2018-03-06T05:34:17.573Z,68.00
2018-03-06T05:35:17.457Z,76.00
2018-03-06T05:36:17.355Z,88.00
2018-03-06T05:37:17.239Z,96.00
2018-03-06T05:38:17.136Z,104.00
2018-03-06T05:39:17.032Z,116.00
2018-03-06T05:40:16.917Z,128.00
2018-03-06T05:41:16.819Z,140.00
2018-03-06T05:42:16.698Z,152.00
2018-03-06T05:43:16.594Z,164.00
2018-03-06T05:44:16.790Z,176.00
2018-03-06T05:45:16.375Z,188.00
2018-03-06T05:46:16.270Z,204.00
2018-03-06T05:47:16.168Z,220.00
2018-03-06T05:48:16.064Z,232.00
2018-03-06T05:49:15.948Z,248.00
2018-03-06T05:50:15.834Z,268.00
2018-03-06T05:51:15.730Z,288.00
2018-03-06T05:52:15.627Z,308.00
2018-03-06T05:53:15.511Z,332.00
2018-03-06T05:54:15.407Z,360.00
2018-03-06T05:55:15.303Z,380.00
2018-03-06T05:56:15.188Z,408.00
2018-03-06T05:57:15.085Z,432.00
2018-03-06T05:58:14.968Z,456.00
2018-03-06T05:59:14.865Z,480.00
2018-03-06T06:00:14.775Z,508.00
2018-03-06T06:01:14.648Z,532.00
2018-03-06T06:02:14.544Z,560.00
2018-03-06T06:03:14.440Z,588.00
2018-03-06T06:04:14.324Z,620.00
2018-03-06T06:05:14.221Z,648.00
2018-03-06T06:06:14.105Z,676.00
2018-03-06T06:07:14.000Z,708.00
2018-03-06T06:08:13.899Z,744.00
2018-03-06T06:09:13.781Z,772.00
2018-03-06T06:10:13.682Z,816.00
2018-03-06T06:11:13.575Z,856.00
2018-03-06T06:12:13.461Z,896.00
2018-03-06T06:13:13.357Z,940.00
2018-03-06T06:14:13.254Z,988.00
2018-03-06T06:15:13.137Z,1036.00
2018-03-06T06:16:13.033Z,1084.00
2018-03-06T06:17:12.918Z,1136.00
2018-03-06T06:18:12.814Z,1188.00
2018-03-06T06:19:12.750Z,1240.00
2018-03-06T06:20:12.597Z,1296.00
2018-03-06T06:21:12.493Z,1352.00
2018-03-06T06:22:12.389Z,1412.00
2018-03-06T06:23:12.274Z,1472.00
2018-03-06T06:24:12.170Z,1524.00
2018-03-06T06:25:12.056Z,1576.00
2018-03-06T06:26:11.952Z,1632.00
2018-03-06T06:27:11.848Z,1688.00
2018-03-06T06:28:11.732Z,1744.00
2018-03-06T06:29:11.629Z,1800.00
2018-03-06T06:30:11.528Z,1860.00
2018-03-06T06:31:11.410Z,1924.00
2018-03-06T06:32:11.306Z,1984.00
2018-03-06T06:33:11.205Z,2052.00
2018-03-06T06:34:11.088Z,2108.00
2018-03-06T06:35:10.984Z,2168.00
2018-03-06T06:36:10.880Z,2224.00
2018-03-06T06:37:10.765Z,2280.00
2018-03-06T06:38:10.661Z,2332.00
2018-03-06T06:39:10.811Z,2384.00
2018-03-06T06:40:10.442Z,2432.00
2018-03-06T06:41:10.339Z,2476.00
2018-03-06T06:42:10.235Z,2520.00
2018-03-06T06:43:10.119Z,2564.00
2018-03-06T06:44:10.017Z,2608.00
2018-03-06T06:45:09.913Z,2656.00
2018-03-06T06:46:09.797Z,2692.00
2018-03-06T06:47:09.694Z,2724.00
2018-03-06T06:48:09.592Z,2764.00
2018-03-06T06:49:09.474Z,2804.00
2018-03-06T06:50:09.373Z,2836.00
2018-03-06T06:51:09.269Z,2868.00
2018-03-06T06:52:09.152Z,2896.00
2018-03-06T06:53:09.049Z,2920.00
2018-03-06T06:54:08.945Z,2952.00
2018-03-06T06:55:08.842Z,2980.00
2018-03-06T06:56:08.725Z,3016.00
2018-03-06T06:57:08.623Z,3064.00
2018-03-06T06:58:08.519Z,3108.00
2018-03-06T06:59:08.405Z,3140.00
2018-03-06T07:00:08.306Z,3164.00
2018-03-06T07:01:08.202Z,3188.00
2018-03-06T07:02:08.081Z,3200.00
2018-03-06T07:03:07.978Z,3212.00
2018-03-06T07:04:08.125Z,3224.00
2018-03-06T07:05:07.760Z,3244.00
2018-03-06T07:06:07.656Z,3256.00
2018-03-06T07:07:07.553Z,3292.00
2018-03-06T07:08:07.437Z,3336.00
2018-03-06T07:09:07.335Z,3388.00
2018-03-06T07:10:07.229Z,3440.00
2018-03-06T07:11:07.127Z,3496.00
2018-03-06T07:12:07.010Z,3540.00
2018-03-06T07:13:06.907Z,3576.00
2018-03-06T07:14:06.805Z,3612.00
2018-03-06T07:15:06.701Z,3680.00
2018-03-06T07:16:06.588Z,3764.00
2018-03-06T07:17:06.482Z,3840.00
2018-03-06T07:18:06.377Z,3892.00
2018-03-06T07:19:06.264Z,3960.00
2018-03-06T07:20:06.160Z,4044.00
2018-03-06T07:21:06.056Z,4128.00
2018-03-06T07:22:05.952Z,4216.00
2018-03-06T07:23:05.837Z,4284.00
2018-03-06T07:24:05.984Z,4400.00
2018-03-06T07:25:05.630Z,4544.00
2018-03-06T07:26:05.538Z,4704.00
2018-03-06T07:27:05.411Z,4872.00
2018-03-06T07:28:05.308Z,5012.00
2018-03-06T07:29:05.206Z,5112.00
2018-03-06T07:30:05.092Z,5216.00
2018-03-06T07:31:04.997Z,5304.00
2018-03-06T07:32:04.882Z,5288.00
2018-03-06T07:33:04.779Z,5336.00
2018-03-06T07:34:04.674Z,5408.00
2018-03-06T07:35:04.560Z,5496.00
2018-03-06T07:36:04.456Z,5588.00
2018-03-06T07:37:04.363Z,5668.00
2018-03-06T07:38:04.279Z,5752.00
2018-03-06T07:39:04.135Z,5788.00
2018-03-06T07:40:04.028Z,5784.00
2018-03-06T07:41:03.927Z,5748.00
2018-03-06T07:42:03.827Z,5716.00
2018-03-06T07:43:03.720Z,5720.00
2018-03-06T07:44:03.606Z,5716.00
2018-03-06T07:45:03.507Z,5716.00
2018-03-06T07:46:03.398Z,5724.00
2018-03-06T07:47:03.295Z,5788.00
2018-03-06T07:48:03.181Z,5884.00
2018-03-06T07:49:03.075Z,5900.00
2018-03-06T07:50:02.974Z,5884.00
2018-03-06T07:51:02.868Z,5808.00
2018-03-06T07:52:02.766Z,5776.00
2018-03-06T07:53:02.651Z,5712.00
2018-03-06T07:54:02.548Z,5672.00
2018-03-06T07:55:02.447Z,5648.00
2018-03-06T07:56:02.340Z,5668.00
2018-03-06T07:57:02.236Z,5696.00
2018-03-06T07:58:02.133Z,5704.00
2018-03-06T07:59:02.017Z,5700.00
2018-03-06T08:00:01.916Z,5624.00
2018-03-06T08:01:01.814Z,5608.00
2018-03-06T08:02:01.712Z,5656.00
2018-03-06T08:03:01.605Z,5664.00
2018-03-06T08:04:01.491Z,5736.00
2018-03-06T08:05:01.385Z,5804.00
2018-03-06T08:06:01.282Z,5844.00
2018-03-06T08:07:01.178Z,5856.00
2018-03-06T08:08:01.076Z,5876.00
2018-03-06T08:09:00.959Z,5876.00
2018-03-06T08:10:00.855Z,5872.00
2018-03-06T08:11:00.753Z,5908.00
2018-03-06T08:12:00.677Z,5960.00
2018-03-06T08:13:00.546Z,6032.00
2018-03-06T08:14:00.442Z,6104.00
2018-03-06T08:15:00.326Z,6208.00
2018-03-06T08:16:00.224Z,6316.00
2018-03-06T08:17:00.121Z,6436.00
2018-03-06T08:18:00.017Z,6544.00
2018-03-06T08:18:59.914Z,6708.00
2018-03-06T08:19:59.796Z,6844.00
2018-03-06T08:20:59.694Z,6944.00
2018-03-06T08:21:59.591Z,7100.00
2018-03-06T08:22:59.490Z,7296.00
2018-03-06T08:23:59.383Z,7424.00
2018-03-06T08:24:59.276Z,7576.00
2018-03-06T08:25:59.169Z,7728.00
2018-03-06T08:26:59.062Z,7848.00
2018-03-06T08:27:58.959Z,7880.00
2018-03-06T08:28:58.855Z,7884.00
2018-03-06T08:29:58.752Z,7888.00
2018-03-06T08:30:58.638Z,7912.00
2018-03-06T08:31:58.534Z,7944.00
2018-03-06T08:32:58.432Z,7948.00
2018-03-06T08:33:58.325Z,7996.00
2018-03-06T08:34:58.222Z,8064.00
2018-03-06T08:35:58.120Z,8116.00
2018-03-06T08:36:58.015Z,8208.00
2018-03-06T08:37:57.902Z,8356.00
2018-03-06T08:38:57.798Z,8504.00
2018-03-06T08:39:57.695Z,8684.00
2018-03-06T08:40:57.591Z,8820.00
2018-03-06T08:41:57.488Z,8980.00
2018-03-06T08:42:57.384Z,9056.00
2018-03-06T08:43:57.281Z,9184.00
2018-03-06T08:44:57.177Z,9284.00
2018-03-06T08:45:57.074Z,9388.00
2018-03-06T08:46:56.959Z,9548.00
2018-03-06T08:47:56.854Z,9644.00
2018-03-06T08:48:56.754Z,9740.00
2018-03-06T08:49:56.647Z,9848.00
2018-03-06T08:50:56.545Z,9904.00
2018-03-06T08:51:56.441Z,10048.00
2018-03-06T08:52:56.362Z,10128.00
2018-03-06T08:53:56.234Z,10236.00
2018-03-06T08:54:56.131Z,10360.00
2018-03-06T08:55:56.028Z,10444.00
2018-03-06T08:56:55.924Z,10496.00
2018-03-06T08:57:55.822Z,10576.00
2018-03-06T08:58:55.967Z,10636.00
2018-03-06T08:59:55.603Z,10736.00
2018-03-06T09:00:55.499Z,10852.00
2018-03-06T09:01:55.396Z,10960.00
2018-03-06T09:02:55.292Z,11052.00
2018-03-06T09:03:55.190Z,11108.00
2018-03-06T09:04:55.086Z,11132.00
2018-03-06T09:05:54.984Z,11152.00
2018-03-06T09:06:54.878Z,11132.00
2018-03-06T09:07:54.780Z,11040.00
2018-03-06T09:08:54.675Z,10964.00
2018-03-06T09:09:54.568Z,10904.00
2018-03-06T09:10:54.466Z,10888.00
2018-03-06T09:11:54.362Z,10912.00
2018-03-06T09:12:54.260Z,10944.00
2018-03-06T09:13:54.156Z,11012.00
2018-03-06T09:14:54.053Z,11104.00
2018-03-06T09:15:53.951Z,11188.00
2018-03-06T09:16:53.846Z,11236.00
2018-03-06T09:17:53.744Z,11212.00
2018-03-06T09:18:53.891Z,11140.00
2018-03-06T09:19:53.547Z,11204.00
2018-03-06T09:20:53.433Z,11168.00
2018-03-06T09:21:53.330Z,11248.00
2018-03-06T09:22:53.227Z,11244.00
2018-03-06T09:23:53.123Z,11248.00
2018-03-06T09:24:53.021Z,11340.00
2018-03-06T09:25:52.916Z,11456.00
2018-03-06T09:26:52.826Z,11548.00
2018-03-06T09:27:52.722Z,11696.00
2018-03-06T09:28:52.619Z,11872.00
2018-03-06T09:29:52.516Z,12000.00
2018-03-06T09:30:52.412Z,12148.00
2018-03-06T09:31:52.309Z,12240.00
2018-03-06T09:32:52.207Z,12288.00
2018-03-06T09:33:52.101Z,12324.00
2018-03-06T09:34:51.998Z,12388.00
2018-03-06T09:35:51.896Z,12440.00
2018-03-06T09:36:51.806Z,12636.00
2018-03-06T09:37:51.690Z,12820.00
2018-03-06T09:38:51.585Z,13008.00
2018-03-06T09:39:51.483Z,13152.00
2018-03-06T09:40:51.380Z,13236.00
2018-03-06T09:41:51.288Z,13332.00
2018-03-06T09:42:51.185Z,13528.00
2018-03-06T09:43:51.082Z,13456.00
2018-03-06T09:44:50.978Z,13364.00
2018-03-06T09:45:50.874Z,13336.00
2018-03-06T09:46:50.771Z,13360.00
2018-03-06T09:47:50.669Z,13276.00
2018-03-06T09:48:50.564Z,13228.00
2018-03-06T09:49:50.462Z,13184.00
2018-03-06T09:50:50.384Z,13076.00
2018-03-06T09:51:50.266Z,13012.00
2018-03-06T09:52:50.163Z,12940.00
2018-03-06T09:53:50.061Z,12868.00
2018-03-06T09:54:49.958Z,12864.00
2018-03-06T09:55:49.853Z,12856.00
2018-03-06T09:56:49.750Z,12892.00
2018-03-06T09:57:49.646Z,12912.00
2018-03-06T09:58:49.846Z,12992.00
2018-03-06T09:59:49.441Z,13084.00
2018-03-06T10:00:49.351Z,13260.00
2018-03-06T10:01:49.247Z,13388.00
2018-03-06T10:02:49.144Z,13484.00
2018-03-06T10:03:49.040Z,13552.00
2018-03-06T10:04:48.936Z,13628.00
2018-03-06T10:05:48.835Z,13772.00
2018-03-06T10:06:48.729Z,13840.00
2018-03-06T10:07:48.627Z,13908.00
2018-03-06T10:08:48.535Z,13944.00
2018-03-06T10:09:48.431Z,13956.00
2018-03-06T10:10:48.329Z,14028.00
2018-03-06T10:11:48.224Z,14096.00
2018-03-06T10:12:48.122Z,14100.00
2018-03-06T10:13:48.018Z,14068.00
2018-03-06T10:14:47.915Z,14080.00
2018-03-06T10:15:47.826Z,14092.00
2018-03-06T10:16:47.720Z,14124.00
2018-03-06T10:17:47.618Z,14136.00
2018-03-06T10:18:47.515Z,14212.00
2018-03-06T10:19:47.461Z,14340.00
2018-03-06T10:20:47.308Z,14444.00
2018-03-06T10:21:47.216Z,14540.00
2018-03-06T10:22:47.114Z,14624.00
2018-03-06T10:23:47.018Z,14680.00
2018-03-06T10:24:46.908Z,14704.00
2018-03-06T10:25:46.804Z,14680.00
2018-03-06T10:26:46.714Z,14660.00
2018-03-06T10:27:46.600Z,14608.00
2018-03-06T10:28:46.507Z,14544.00
2018-03-06T10:29:46.403Z,14484.00
2018-03-06T10:30:46.301Z,14428.00
2018-03-06T10:31:46.198Z,14360.00
2018-03-06T10:32:46.105Z,14304.00
2018-03-06T10:33:46.003Z,14232.00
2018-03-06T10:34:45.901Z,14168.00
2018-03-06T10:35:45.808Z,14180.00
2018-03-06T10:36:45.693Z,14204.00
2018-03-06T10:37:45.602Z,14240.00
2018-03-06T10:38:45.499Z,14280.00
2018-03-06T10:39:45.397Z,14352.00
2018-03-06T10:40:45.292Z,14444.00
2018-03-06T10:41:45.189Z,14568.00
2018-03-06T10:42:45.098Z,14716.00
2018-03-06T10:43:44.996Z,14884.00
2018-03-06T10:44:44.904Z,14980.00
2018-03-06T10:45:44.788Z,15048.00
2018-03-06T10:46:44.697Z,15100.00
2018-03-06T10:47:44.594Z,15184.00
2018-03-06T10:48:44.490Z,15212.00
2018-03-06T10:49:44.387Z,15228.00
2018-03-06T10:50:44.297Z,15228.00
2018-03-06T10:51:44.228Z,15240.00
2018-03-06T10:52:44.090Z,15224.00
2018-03-06T10:53:43.999Z,15196.00
2018-03-06T10:54:43.887Z,15168.00
2018-03-06T10:55:43.792Z,15132.00
2018-03-06T10:56:43.689Z,15080.00
2018-03-06T10:57:43.597Z,15052.00
2018-03-06T10:58:43.494Z,15024.00
2018-03-06T10:59:43.392Z,15092.00
2018-03-06T11:00:43.288Z,15164.00
2018-03-06T11:01:43.186Z,15228.00
2018-03-06T11:02:43.095Z,15288.00
2018-03-06T11:03:42.991Z,15336.00
2018-03-06T11:04:42.887Z,15388.00
2018-03-06T11:05:42.785Z,15432.00
2018-03-06T11:06:42.693Z,15524.00
2018-03-06T11:07:42.591Z,15628.00
2018-03-06T11:08:42.501Z,15748.00
2018-03-06T11:09:42.384Z,15840.00
2018-03-06T11:10:42.292Z,15884.00
2018-03-06T11:11:42.189Z,15904.00
2018-03-06T11:12:42.087Z,15864.00
2018-03-06T11:13:41.994Z,15824.00
2018-03-06T11:14:41.892Z,15776.00
2018-03-06T11:15:41.789Z,15724.00
2018-03-06T11:16:41.686Z,15696.00
2018-03-06T11:17:41.596Z,15680.00
2018-03-06T11:18:41.492Z,15656.00
2018-03-06T11:19:41.388Z,15664.00
2018-03-06T11:20:41.285Z,15640.00
2018-03-06T11:21:41.194Z,15608.00
2018-03-06T11:22:41.090Z,15572.00
2018-03-06T11:23:40.986Z,15508.00
2018-03-06T11:24:40.916Z,15444.00
2018-03-06T11:25:40.798Z,15400.00
2018-03-06T11:26:40.691Z,15336.00
2018-03-06T11:27:40.587Z,15260.00
2018-03-06T11:28:40.496Z,15180.00
2018-03-06T11:29:40.391Z,15120.00
2018-03-06T11:30:40.290Z,15028.00
2018-03-06T11:31:40.203Z,14932.00
2018-03-06T11:32:40.095Z,14836.00
2018-03-06T11:33:39.992Z,14740.00
2018-03-06T11:34:39.884Z,14660.00
2018-03-06T11:35:39.792Z,14596.00
2018-03-06T11:36:39.698Z,14536.00
2018-03-06T11:37:39.590Z,14488.00
2018-03-06T11:38:39.750Z,14432.00
2018-03-06T11:39:39.398Z,14368.00
2018-03-06T11:40:39.291Z,14304.00
2018-03-06T11:41:39.203Z,14216.00
2018-03-06T11:42:39.100Z,14116.00
2018-03-06T11:43:38.992Z,14008.00
2018-03-06T11:44:38.893Z,13944.00
2018-03-06T11:45:38.796Z,13896.00
2018-03-06T11:46:38.707Z,13868.00
2018-03-06T11:47:38.597Z,13848.00
2018-03-06T11:48:38.490Z,13836.00
2018-03-06T11:49:38.404Z,13832.00
2018-03-06T11:50:38.294Z,13808.00
2018-03-06T11:51:38.191Z,13804.00
2018-03-06T11:52:38.108Z,13812.00
2018-03-06T11:53:37.994Z,13788.00
2018-03-06T11:54:37.897Z,13796.00
2018-03-06T11:55:37.794Z,13836.00
2018-03-06T11:56:37.713Z,13888.00
2018-03-06T11:57:37.598Z,13928.00
2018-03-06T11:58:37.490Z,13964.00
2018-03-06T11:59:37.403Z,13988.00
2018-03-06T12:00:37.301Z,14012.00
2018-03-06T12:01:37.196Z,14024.00
2018-03-06T12:02:37.112Z,13992.00
2018-03-06T12:03:37.005Z,13956.00
2018-03-06T12:04:36.899Z,13948.00
2018-03-06T12:05:36.804Z,13956.00
2018-03-06T12:06:36.709Z,13976.00
2018-03-06T12:07:36.599Z,14008.00
2018-03-06T12:08:36.503Z,14048.00
2018-03-06T12:09:36.421Z,14060.00
2018-03-06T12:10:36.349Z,14052.00
2018-03-06T12:11:36.205Z,14044.00
2018-03-06T12:12:36.113Z,14068.00
2018-03-06T12:13:36.007Z,14092.00
2018-03-06T12:14:35.906Z,14124.00
2018-03-06T12:15:35.803Z,14132.00
2018-03-06T12:16:35.718Z,14128.00
2018-03-06T12:17:35.606Z,14088.00
2018-03-06T12:18:35.752Z,14048.00
2018-03-06T12:19:35.415Z,14036.00
2018-03-06T12:20:35.310Z,13940.00
2018-03-06T12:21:35.205Z,13784.00
2018-03-06T12:22:35.130Z,13608.00
2018-03-06T12:23:35.014Z,13432.00
2018-03-06T12:24:34.906Z,13320.00
2018-03-06T12:25:34.812Z,13212.00
2018-03-06T12:26:34.712Z,13168.00
2018-03-06T12:27:34.607Z,13140.00
2018-03-06T12:28:34.507Z,13128.00
2018-03-06T12:29:34.412Z,13104.00